createdAt,value
2022-11-18T00:00:40.576Z,11.60
2022-11-18T00:01:40.560Z,11.70
2022-11-18T00:02:40.631Z,11.30
2022-11-18T00:03:40.542Z,11.20
2022-11-18T00:04:40.529Z,11.50
2022-11-18T00:05:40.521Z,10.50
2022-11-18T00:06:40.502Z,11.40
2022-11-18T00:07:40.567Z,10.70
2022-11-18T00:08:40.484Z,11.70
2022-11-18T00:09:40.483Z,11.10
2022-11-18T00:10:40.462Z,10.90
2022-11-18T00:11:40.464Z,11.10
2022-11-18T00:12:40.463Z,12.00
2022-11-18T00:13:40.424Z,11.20
2022-11-18T00:14:40.430Z,10.90
2022-11-18T00:15:40.407Z,11.70
2022-11-18T00:16:40.400Z,12.00
2022-11-18T00:17:40.516Z,11.70
2022-11-18T00:18:40.378Z,11.40
2022-11-18T00:19:40.373Z,11.80
2022-11-18T00:20:40.349Z,12.20
2022-11-18T00:21:40.343Z,12.20
2022-11-18T00:22:40.357Z,11.50
2022-11-18T00:23:40.322Z,11.30
2022-11-18T00:24:40.311Z,11.50
2022-11-18T00:25:40.303Z,11.30
2022-11-18T00:26:40.291Z,12.00
2022-11-18T00:27:40.322Z,11.50
2022-11-18T00:28:40.262Z,12.20
2022-11-18T00:29:40.252Z,12.00
2022-11-18T00:30:40.256Z,11.70
2022-11-18T00:31:40.232Z,12.30
2022-11-18T00:32:40.240Z,12.70
2022-11-18T00:33:40.210Z,12.90
2022-11-18T00:34:40.209Z,11.60
2022-11-18T00:35:40.186Z,12.10
2022-11-18T00:36:40.183Z,12.90
2022-11-18T00:37:40.182Z,12.50
2022-11-18T00:38:40.152Z,12.40
2022-11-18T00:39:40.147Z,14.40
2022-11-18T00:40:40.132Z,15.30
2022-11-18T00:41:40.127Z,13.30
2022-11-18T00:42:40.137Z,13.90
2022-11-18T00:43:40.102Z,13.60
2022-11-18T00:44:40.088Z,13.50
2022-11-18T00:45:40.084Z,13.40
2022-11-18T00:46:40.077Z,11.80
2022-11-18T00:47:40.083Z,14.30
2022-11-18T00:48:40.057Z,13.40
2022-11-18T00:49:40.049Z,12.10
2022-11-18T00:50:40.033Z,14.30
2022-11-18T00:51:40.016Z,15.20
2022-11-18T00:52:40.007Z,13.80
2022-11-18T00:53:40.008Z,16.00
2022-11-18T00:54:39.997Z,15.30
2022-11-18T00:55:39.973Z,14.40
2022-11-18T00:56:39.958Z,13.70
2022-11-18T00:57:39.952Z,13.90
2022-11-18T00:58:40.115Z,14.60
2022-11-18T00:59:39.936Z,13.30
2022-11-18T01:00:39.920Z,11.30
2022-11-18T01:01:39.952Z,12.70
2022-11-18T01:02:39.914Z,12.90
2022-11-18T01:03:39.984Z,12.40
2022-11-18T01:04:39.878Z,12.60
2022-11-18T01:05:39.866Z,13.50
2022-11-18T01:06:39.857Z,13.00
2022-11-18T01:07:39.884Z,13.30
2022-11-18T01:08:39.845Z,13.00
2022-11-18T01:09:39.822Z,13.30
2022-11-18T01:10:39.816Z,12.30
2022-11-18T01:11:39.796Z,12.60
2022-11-18T01:12:39.792Z,13.30
2022-11-18T01:13:39.785Z,13.00
2022-11-18T01:14:39.779Z,13.40
2022-11-18T01:15:39.763Z,13.10
2022-11-18T01:16:39.770Z,12.80
2022-11-18T01:17:39.736Z,12.70
2022-11-18T01:18:39.740Z,12.70
2022-11-18T01:19:39.712Z,13.50
2022-11-18T01:20:39.706Z,12.60
2022-11-18T01:21:39.694Z,12.60
2022-11-18T01:22:39.679Z,12.90
2022-11-18T01:23:39.688Z,12.50
2022-11-18T01:24:39.657Z,13.50
2022-11-18T01:25:39.646Z,12.50
2022-11-18T01:26:39.652Z,12.50
2022-11-18T01:27:39.626Z,12.60
2022-11-18T01:28:39.630Z,13.50
2022-11-18T01:29:39.609Z,12.80
2022-11-18T01:30:39.599Z,13.30
2022-11-18T01:32:01.490Z,12.60
2022-11-18T01:32:39.594Z,13.90
2022-11-18T01:33:39.579Z,13.20
2022-11-18T01:34:39.554Z,13.10
2022-11-18T01:35:39.548Z,13.80
2022-11-18T01:36:39.531Z,13.60
2022-11-18T01:37:39.516Z,13.80
2022-11-18T01:38:39.537Z,13.20
2022-11-18T01:39:39.494Z,13.50
2022-11-18T01:40:39.489Z,13.40
2022-11-18T01:41:39.468Z,13.80
2022-11-18T01:42:39.459Z,13.70
2022-11-18T01:43:39.470Z,14.50
2022-11-18T01:44:39.436Z,13.50
2022-11-18T01:45:39.435Z,14.00
2022-11-18T01:46:39.435Z,13.90
2022-11-18T01:47:39.409Z,12.90
2022-11-18T01:48:39.419Z,13.30
2022-11-18T01:49:39.390Z,14.60
2022-11-18T01:50:39.384Z,14.20
2022-11-18T01:51:39.370Z,13.50
2022-11-18T01:52:39.356Z,14.10
2022-11-18T01:53:39.362Z,14.80
2022-11-18T01:54:39.350Z,14.20
2022-11-18T01:55:39.323Z,13.50
2022-11-18T01:56:39.322Z,13.80
2022-11-18T01:57:39.295Z,14.40
2022-11-18T01:58:39.326Z,14.10
2022-11-18T01:59:39.281Z,13.80
2022-11-18T02:00:39.268Z,13.60
2022-11-18T02:01:39.418Z,14.00
2022-11-18T02:02:39.248Z,13.70
2022-11-18T02:03:39.256Z,13.80
2022-11-18T02:04:39.223Z,14.20
2022-11-18T02:05:39.212Z,14.10
2022-11-18T02:06:39.212Z,14.40
2022-11-18T02:07:39.292Z,14.00
2022-11-18T02:08:39.201Z,13.90
2022-11-18T02:09:39.184Z,14.10
2022-11-18T02:10:39.173Z,14.30
2022-11-18T02:11:39.203Z,14.00
2022-11-18T02:12:39.133Z,14.60
2022-11-18T02:13:39.141Z,14.70
2022-11-18T02:14:39.124Z,13.10
2022-11-18T02:15:39.115Z,13.30
2022-11-18T02:16:39.118Z,14.30
2022-11-18T02:17:39.097Z,13.70
2022-11-18T02:18:39.092Z,13.50
2022-11-18T02:19:39.062Z,13.70
2022-11-18T02:20:39.060Z,13.90
2022-11-18T02:21:39.058Z,14.70
2022-11-18T02:22:39.031Z,13.50
2022-11-18T02:23:39.036Z,13.40
2022-11-18T02:24:39.006Z,13.50
2022-11-18T02:25:39.004Z,13.60
2022-11-18T02:26:38.986Z,14.00
2022-11-18T02:27:38.998Z,13.60
2022-11-18T02:28:38.984Z,13.70
2022-11-18T02:29:38.958Z,14.30
2022-11-18T02:30:38.942Z,14.10
2022-11-18T02:31:38.932Z,13.90
2022-11-18T02:32:38.925Z,14.00
2022-11-18T02:33:38.924Z,13.50
2022-11-18T02:34:38.911Z,14.20
2022-11-18T02:35:38.883Z,14.50
2022-11-18T02:36:38.881Z,13.80
2022-11-18T02:37:39.498Z,14.80
2022-11-18T02:38:38.881Z,14.30
2022-11-18T02:39:38.846Z,13.10
2022-11-18T02:40:38.832Z,14.30
2022-11-18T02:41:38.831Z,13.80
2022-11-18T02:42:38.814Z,14.10
2022-11-18T02:43:38.825Z,13.70
2022-11-18T02:44:38.794Z,13.80
2022-11-18T02:45:38.790Z,14.10
2022-11-18T02:46:38.773Z,14.00
2022-11-18T02:47:39.499Z,13.10
2022-11-18T02:48:38.770Z,13.50
2022-11-18T02:49:38.742Z,13.80
2022-11-18T02:50:38.735Z,14.20
2022-11-18T02:51:38.713Z,14.10
2022-11-18T02:52:38.706Z,14.50
2022-11-18T02:53:38.712Z,14.50
2022-11-18T02:54:38.686Z,14.40
2022-11-18T02:55:38.684Z,14.50
2022-11-18T02:56:38.665Z,13.80
2022-11-18T02:57:39.401Z,14.10
2022-11-18T02:58:38.667Z,14.30
2022-11-18T02:59:38.630Z,13.60
2022-11-18T03:00:38.621Z,14.60
2022-11-18T03:01:38.656Z,14.30
2022-11-18T03:02:38.608Z,14.30
2022-11-18T03:03:38.616Z,14.50
2022-11-18T03:04:38.579Z,14.80
2022-11-18T03:05:38.566Z,14.30
2022-11-18T03:06:38.557Z,15.10
2022-11-18T03:07:38.575Z,15.30
2022-11-18T03:08:38.549Z,14.50
2022-11-18T03:09:38.528Z,15.00
2022-11-18T03:10:38.520Z,15.60
2022-11-18T03:11:38.509Z,15.50
2022-11-18T03:12:38.481Z,14.60
2022-11-18T03:13:38.496Z,14.40
2022-11-18T03:14:38.463Z,15.10
2022-11-18T03:15:38.457Z,16.60
2022-11-18T03:16:38.439Z,15.50
2022-11-18T03:17:38.432Z,15.70
2022-11-18T03:18:38.448Z,16.60
2022-11-18T03:19:38.415Z,16.30
2022-11-18T03:20:38.397Z,16.80
2022-11-18T03:21:38.407Z,17.10
2022-11-18T03:22:38.380Z,15.70
2022-11-18T03:23:38.389Z,15.70
2022-11-18T03:24:38.351Z,16.90
2022-11-18T03:25:38.351Z,16.90
2022-11-18T03:26:38.339Z,17.20
2022-11-18T03:27:38.325Z,16.60
2022-11-18T03:28:38.331Z,16.80
2022-11-18T03:30:31.896Z,16.80
2022-11-18T03:31:32.888Z,17.10
2022-11-18T03:32:32.875Z,16.70
2022-11-18T03:33:32.862Z,16.80
2022-11-18T03:34:32.873Z,18.30
2022-11-18T03:35:32.853Z,17.80
2022-11-18T03:36:32.833Z,17.70
2022-11-18T03:37:32.822Z,17.90
2022-11-18T03:38:32.817Z,17.40
2022-11-18T03:39:32.818Z,17.20
2022-11-18T03:40:32.797Z,18.80
2022-11-18T03:41:32.785Z,17.80
2022-11-18T03:42:32.778Z,18.30
2022-11-18T03:43:32.788Z,17.80
2022-11-18T03:44:32.771Z,18.90
2022-11-18T03:45:32.737Z,18.70
2022-11-18T03:46:32.733Z,18.30
2022-11-18T03:47:32.720Z,19.20
2022-11-18T03:48:32.703Z,18.30
2022-11-18T03:49:32.714Z,18.90
2022-11-18T03:50:32.679Z,18.90
2022-11-18T03:51:32.671Z,18.90
2022-11-18T03:52:32.675Z,18.70
2022-11-18T03:53:32.650Z,18.90
2022-11-18T03:54:32.669Z,18.20
2022-11-18T03:55:32.621Z,19.20
2022-11-18T03:56:32.609Z,18.50
2022-11-18T03:57:32.612Z,18.70
2022-11-18T03:58:32.602Z,19.60
2022-11-18T03:59:32.596Z,19.80
2022-11-18T04:00:32.562Z,18.80
2022-11-18T04:01:32.611Z,20.10
2022-11-18T04:02:32.549Z,19.50
2022-11-18T04:03:32.540Z,19.60
2022-11-18T04:04:32.551Z,19.60
2022-11-18T04:05:32.513Z,19.90
2022-11-18T04:06:32.519Z,19.40
2022-11-18T04:07:32.597Z,19.10
2022-11-18T04:08:32.488Z,20.20
2022-11-18T04:09:32.495Z,19.60
2022-11-18T04:10:32.457Z,19.20
2022-11-18T04:11:32.453Z,19.00
2022-11-18T04:12:32.441Z,19.10
2022-11-18T04:13:32.424Z,19.70
2022-11-18T04:14:32.450Z,18.90
2022-11-18T04:15:32.403Z,19.70
2022-11-18T04:16:32.390Z,19.30
2022-11-18T04:17:32.386Z,19.40
2022-11-18T04:18:32.369Z,19.30
2022-11-18T04:19:32.391Z,19.40
2022-11-18T04:20:32.354Z,19.00
2022-11-18T04:21:32.332Z,19.60
2022-11-18T04:22:32.327Z,18.50
2022-11-18T04:23:32.324Z,19.00
2022-11-18T04:24:32.321Z,19.60
2022-11-18T04:25:32.296Z,19.70
2022-11-18T04:26:32.287Z,20.40
2022-11-18T04:27:32.279Z,19.00
2022-11-18T04:28:32.264Z,20.20
2022-11-18T04:29:32.268Z,20.20
2022-11-18T04:30:32.236Z,19.50
2022-11-18T04:31:32.226Z,19.40
2022-11-18T04:32:32.217Z,20.20
2022-11-18T04:33:32.207Z,19.10
2022-11-18T04:34:32.211Z,20.00
2022-11-18T04:35:32.187Z,20.00
2022-11-18T04:36:32.179Z,19.30
2022-11-18T04:37:32.162Z,20.40
2022-11-18T04:38:32.145Z,20.70
2022-11-18T04:39:32.156Z,19.50
2022-11-18T04:40:32.128Z,19.80
2022-11-18T04:41:32.123Z,20.00
2022-11-18T04:42:32.104Z,20.20
2022-11-18T04:43:32.101Z,19.90
2022-11-18T04:44:32.103Z,19.80
2022-11-18T04:45:32.077Z,20.20
2022-11-18T04:46:32.064Z,19.90
2022-11-18T04:47:32.055Z,19.20
2022-11-18T04:48:32.037Z,19.30
2022-11-18T04:49:32.056Z,19.20
2022-11-18T04:50:32.021Z,19.40
2022-11-18T04:51:32.010Z,19.90
2022-11-18T04:52:31.997Z,19.00
2022-11-18T04:53:32.003Z,18.70
2022-11-18T04:54:32.010Z,19.50
2022-11-18T04:55:31.966Z,19.20
2022-11-18T04:56:31.969Z,18.90
2022-11-18T04:57:31.960Z,18.50
2022-11-18T04:58:31.947Z,18.70
2022-11-18T04:59:31.948Z,18.80
2022-11-18T05:00:31.924Z,19.90
2022-11-18T05:01:31.957Z,18.70
2022-11-18T05:02:31.905Z,19.10
2022-11-18T05:03:31.871Z,17.90
2022-11-18T05:04:31.882Z,18.50
2022-11-18T05:05:31.858Z,19.00
2022-11-18T05:06:31.843Z,18.20
2022-11-18T05:07:31.960Z,18.10
2022-11-18T05:08:31.826Z,17.70
2022-11-18T05:09:32.520Z,18.20
2022-11-18T05:10:31.812Z,17.90
2022-11-18T05:11:31.789Z,18.20
2022-11-18T05:12:31.777Z,17.80
2022-11-18T05:13:31.817Z,18.20
2022-11-18T05:14:31.777Z,17.90
2022-11-18T05:15:31.746Z,18.50
2022-11-18T05:16:31.752Z,17.90
2022-11-18T05:17:31.723Z,17.70
2022-11-18T05:18:31.720Z,18.40
2022-11-18T05:19:31.719Z,18.50
2022-11-18T05:20:31.692Z,17.30
2022-11-18T05:21:31.688Z,17.30
2022-11-18T05:22:31.676Z,18.70
2022-11-18T05:23:31.664Z,18.30
2022-11-18T05:24:31.671Z,18.70
2022-11-18T05:25:31.636Z,17.80
2022-11-18T05:26:31.630Z,17.90
2022-11-18T05:27:31.620Z,18.00
2022-11-18T05:28:31.603Z,18.60
2022-11-18T05:29:31.607Z,18.40
2022-11-18T05:30:31.587Z,18.00
2022-11-18T05:31:31.575Z,16.60
2022-11-18T05:32:31.557Z,17.30
2022-11-18T05:33:31.587Z,17.60
2022-11-18T05:34:31.563Z,17.40
2022-11-18T05:35:31.528Z,18.50
2022-11-18T05:36:31.520Z,18.80
2022-11-18T05:37:31.528Z,17.50
2022-11-18T05:38:31.497Z,18.10
2022-11-18T05:39:31.518Z,17.70
2022-11-18T05:40:31.465Z,20.10
2022-11-18T05:41:31.460Z,18.70
2022-11-18T05:42:31.446Z,18.30
2022-11-18T05:43:31.452Z,17.80
2022-11-18T05:44:31.453Z,18.50
2022-11-18T05:45:31.426Z,18.90
2022-11-18T05:46:31.426Z,18.90
2022-11-18T05:47:31.982Z,19.00
2022-11-18T05:48:31.386Z,17.90
2022-11-18T05:49:31.392Z,18.10
2022-11-18T05:50:31.373Z,18.70
2022-11-18T05:51:31.350Z,19.00
2022-11-18T05:52:31.337Z,18.70
2022-11-18T05:53:31.328Z,18.10
2022-11-18T05:54:31.330Z,18.10
2022-11-18T05:55:31.327Z,18.70
2022-11-18T05:56:31.300Z,20.00
2022-11-18T05:57:31.280Z,18.10
2022-11-18T05:58:31.274Z,18.10
2022-11-18T05:59:31.276Z,18.20
2022-11-18T06:00:31.254Z,18.40
2022-11-18T06:01:31.246Z,18.20
2022-11-18T06:02:31.287Z,18.40
2022-11-18T06:03:31.407Z,19.10
2022-11-18T06:04:31.242Z,18.10
2022-11-18T06:05:31.196Z,18.50
2022-11-18T06:06:31.192Z,19.00
2022-11-18T06:07:31.271Z,19.30
2022-11-18T06:08:31.166Z,18.40
2022-11-18T06:09:31.184Z,18.50
2022-11-18T06:10:31.141Z,19.00
2022-11-18T06:11:31.130Z,19.20
2022-11-18T06:12:31.130Z,18.10
2022-11-18T06:13:31.117Z,19.80
2022-11-18T06:14:31.106Z,19.30
2022-11-18T06:15:31.103Z,18.90
2022-11-18T06:16:32.014Z,18.80
2022-11-18T06:17:31.059Z,18.80
2022-11-18T06:18:31.058Z,20.30
2022-11-18T06:19:31.055Z,19.30
2022-11-18T06:20:31.056Z,19.50
2022-11-18T06:21:31.026Z,19.60
2022-11-18T06:22:31.022Z,19.70
2022-11-18T06:23:30.997Z,18.90
2022-11-18T06:24:31.013Z,19.10
2022-11-18T06:25:30.997Z,20.30
2022-11-18T06:26:30.966Z,19.60
2022-11-18T06:27:30.955Z,19.70
2022-11-18T06:28:30.945Z,20.60
2022-11-18T06:29:31.203Z,20.10
2022-11-18T06:30:31.112Z,19.60
2022-11-18T06:31:30.908Z,19.20
2022-11-18T06:32:30.897Z,19.60
2022-11-18T06:33:30.887Z,19.90
2022-11-18T06:34:30.874Z,19.40
2022-11-18T06:35:30.890Z,20.40
2022-11-18T06:36:30.858Z,21.10
2022-11-18T06:37:30.839Z,19.80
2022-11-18T06:38:30.842Z,19.00
2022-11-18T06:39:30.827Z,20.60
2022-11-18T06:40:34.771Z,19.10
2022-11-18T06:41:30.803Z,20.00
2022-11-18T06:42:30.790Z,18.90
2022-11-18T06:43:30.773Z,18.60
2022-11-18T06:44:30.802Z,20.40
2022-11-18T06:45:30.770Z,20.40
2022-11-18T06:46:30.767Z,19.60
2022-11-18T06:47:30.734Z,20.40
2022-11-18T06:48:30.724Z,20.30
2022-11-18T06:49:30.715Z,20.60
2022-11-18T06:50:30.717Z,21.00
2022-11-18T06:51:30.686Z,20.10
2022-11-18T06:52:30.706Z,20.60
2022-11-18T06:53:30.667Z,20.30
2022-11-18T06:54:30.654Z,20.80
2022-11-18T06:55:30.676Z,20.50
2022-11-18T06:56:30.633Z,21.10
2022-11-18T06:57:30.627Z,20.00
2022-11-18T06:58:30.629Z,21.20
2022-11-18T06:59:30.604Z,20.90
2022-11-18T07:00:30.712Z,20.90
2022-11-18T07:01:30.699Z,20.50
2022-11-18T07:02:30.579Z,21.10
2022-11-18T07:03:30.555Z,20.50
2022-11-18T07:04:30.550Z,20.30
2022-11-18T07:05:30.557Z,21.50
2022-11-18T07:06:30.533Z,21.00
2022-11-18T07:07:30.562Z,21.20
2022-11-18T07:08:30.516Z,20.90
2022-11-18T07:09:30.497Z,21.20
2022-11-18T07:10:30.520Z,21.50
2022-11-18T07:11:30.481Z,22.20
2022-11-18T07:12:30.466Z,21.20
2022-11-18T07:13:30.450Z,20.90
2022-11-18T07:14:30.448Z,20.60
2022-11-18T07:15:30.450Z,21.10
2022-11-18T07:16:30.440Z,21.80
2022-11-18T07:17:30.986Z,22.20
2022-11-18T07:18:30.430Z,21.60
2022-11-18T07:19:35.633Z,21.60
2022-11-18T07:20:30.410Z,22.40
2022-11-18T07:21:30.359Z,21.20
2022-11-18T07:22:30.427Z,21.40
2022-11-18T07:23:30.342Z,21.80
2022-11-18T07:24:30.340Z,23.10
2022-11-18T07:25:30.329Z,22.10
2022-11-18T07:26:30.309Z,21.00
2022-11-18T07:27:30.296Z,21.70
2022-11-18T07:28:30.304Z,22.30
2022-11-18T07:29:30.286Z,22.20
2022-11-18T07:30:30.292Z,21.80
2022-11-18T07:31:30.280Z,22.20
2022-11-18T07:32:30.241Z,21.20
2022-11-18T07:33:30.230Z,21.20
2022-11-18T07:34:30.232Z,22.40
2022-11-18T07:35:30.219Z,22.10
2022-11-18T07:36:35.430Z,22.30
2022-11-18T07:37:30.193Z,21.20
2022-11-18T07:38:30.167Z,22.90
2022-11-18T07:39:30.173Z,22.30
2022-11-18T07:40:30.186Z,22.20
2022-11-18T07:41:30.158Z,22.60
2022-11-18T07:42:30.162Z,21.90
2022-11-18T07:43:30.124Z,22.20
2022-11-18T07:44:30.117Z,22.20
2022-11-18T07:45:30.119Z,22.20
2022-11-18T07:46:30.090Z,22.40
2022-11-18T07:47:30.081Z,22.00
2022-11-18T07:48:30.072Z,23.50
2022-11-18T07:49:30.059Z,22.70
2022-11-18T07:50:30.079Z,22.30
2022-11-18T07:51:30.037Z,23.30
2022-11-18T07:52:30.024Z,22.70
2022-11-18T07:53:30.009Z,23.20
2022-11-18T07:54:29.996Z,23.70
2022-11-18T07:55:32.310Z,22.30
2022-11-18T07:56:29.974Z,22.40
2022-11-18T07:57:29.972Z,22.90
2022-11-18T07:58:29.977Z,22.80
2022-11-18T07:59:29.941Z,22.40
2022-11-18T08:00:29.943Z,21.50
2022-11-18T08:01:29.984Z,23.20
2022-11-18T08:02:29.911Z,22.80
2022-11-18T08:03:29.905Z,22.40
2022-11-18T08:04:29.899Z,22.90
2022-11-18T08:05:29.956Z,21.90
2022-11-18T08:06:29.868Z,23.30
2022-11-18T08:07:29.941Z,22.80
2022-11-18T08:08:29.842Z,22.40
2022-11-18T08:09:29.830Z,23.70
2022-11-18T08:10:29.846Z,23.20
2022-11-18T08:11:29.805Z,22.20
2022-11-18T08:12:29.800Z,23.30
2022-11-18T08:13:29.799Z,22.90
2022-11-18T08:14:29.780Z,23.60
2022-11-18T08:15:29.786Z,22.80
2022-11-18T08:16:29.754Z,22.30
2022-11-18T08:17:29.737Z,23.40
2022-11-18T08:18:29.738Z,24.00
2022-11-18T08:19:29.725Z,23.00
2022-11-18T08:20:29.734Z,22.60
2022-11-18T08:21:29.703Z,22.00
2022-11-18T08:22:29.689Z,22.90
2022-11-18T08:23:33.117Z,21.90
2022-11-18T08:24:29.681Z,22.50
2022-11-18T08:25:29.682Z,22.90
2022-11-18T08:26:29.652Z,23.00
2022-11-18T08:27:29.648Z,23.00
2022-11-18T08:28:29.704Z,21.40
2022-11-18T08:29:30.072Z,21.30
2022-11-18T08:30:29.631Z,22.10
2022-11-18T08:31:29.606Z,23.00
2022-11-18T08:32:29.575Z,21.70
2022-11-18T08:33:29.580Z,22.00
2022-11-18T08:34:29.558Z,22.10
2022-11-18T08:35:29.574Z,21.30
2022-11-18T08:36:29.575Z,22.40
2022-11-18T08:37:29.531Z,21.40
2022-11-18T08:38:29.519Z,22.50
2022-11-18T08:39:29.508Z,30.70
2022-11-18T08:40:29.495Z,36.30
2022-11-18T08:41:29.505Z,23.50
2022-11-18T08:42:34.101Z,22.90
2022-11-18T08:43:29.472Z,25.10
2022-11-18T08:44:29.457Z,29.70
2022-11-18T08:45:29.439Z,24.00
2022-11-18T08:46:29.460Z,24.20
2022-11-18T08:47:29.419Z,24.30
2022-11-18T08:48:29.402Z,23.40
2022-11-18T08:49:32.401Z,24.30
2022-11-18T08:50:29.382Z,23.70
2022-11-18T08:51:29.386Z,21.00
2022-11-18T08:52:29.368Z,20.80
2022-11-18T08:53:29.354Z,21.60
2022-11-18T08:54:29.346Z,26.00
2022-11-18T08:55:29.322Z,28.10
2022-11-18T08:56:29.340Z,28.40
2022-11-18T08:57:29.306Z,23.00
2022-11-18T08:58:29.289Z,21.80
2022-11-18T08:59:29.281Z,23.20
2022-11-18T09:00:29.273Z,22.70
2022-11-18T09:01:29.348Z,23.20
2022-11-18T09:02:29.247Z,22.50
2022-11-18T09:03:31.966Z,21.60
2022-11-18T09:04:29.235Z,22.60
2022-11-18T09:05:29.221Z,22.10
2022-11-18T09:06:29.226Z,21.30
2022-11-18T09:07:29.248Z,22.50
2022-11-18T09:08:29.182Z,21.60
2022-11-18T09:09:29.180Z,20.10
2022-11-18T09:10:29.161Z,19.50
2022-11-18T09:11:29.168Z,21.10
2022-11-18T09:12:29.141Z,20.00
2022-11-18T09:15:29.118Z,20.50
2022-11-18T09:16:29.118Z,20.80
2022-11-18T09:17:29.089Z,20.50
2022-11-18T09:18:29.224Z,20.90
2022-11-18T09:19:46.670Z,20.00
2022-11-18T09:20:29.071Z,19.00
2022-11-18T09:21:29.062Z,20.50
2022-11-18T09:22:29.035Z,20.10
2022-11-18T09:23:29.029Z,20.20
2022-11-18T09:24:29.013Z,19.70
2022-11-18T09:25:28.994Z,19.90
2022-11-18T09:26:29.019Z,20.80
2022-11-18T09:27:28.987Z,21.10
2022-11-18T09:28:28.961Z,20.20
2022-11-18T09:29:28.951Z,20.80
2022-11-18T09:30:35.488Z,20.10
2022-11-18T09:31:28.942Z,19.00
2022-11-18T09:32:28.919Z,23.20
2022-11-18T09:33:28.921Z,21.10
2022-11-18T09:34:28.927Z,21.30
2022-11-18T09:35:28.905Z,21.90
2022-11-18T09:36:28.899Z,20.70
2022-11-18T09:37:28.869Z,20.00
2022-11-18T09:38:28.873Z,21.60
2022-11-18T09:39:28.828Z,23.50
2022-11-18T09:40:28.867Z,22.50
2022-11-18T09:41:28.837Z,24.60
2022-11-18T09:42:28.817Z,21.10
2022-11-18T09:43:28.961Z,21.00
2022-11-18T09:44:28.791Z,21.60
2022-11-18T09:45:28.786Z,21.00
2022-11-18T09:46:28.803Z,19.90
2022-11-18T09:47:28.744Z,21.60
2022-11-18T09:48:28.764Z,21.70
2022-11-18T09:49:28.735Z,21.60
2022-11-18T09:51:28.740Z,21.00
2022-11-18T09:52:32.855Z,21.30
2022-11-18T09:53:28.695Z,21.90
2022-11-18T09:54:28.674Z,21.80
2022-11-18T09:55:28.665Z,23.50
2022-11-18T09:56:28.750Z,20.50
2022-11-18T09:57:28.645Z,20.10
2022-11-18T09:58:28.631Z,20.80
2022-11-18T09:59:28.621Z,23.50
2022-11-18T10:00:28.603Z,22.50
2022-11-18T10:01:28.663Z,21.10
2022-11-18T10:02:28.587Z,20.90
2022-11-18T10:03:28.575Z,20.50
2022-11-18T10:04:28.569Z,20.90
2022-11-18T10:05:28.554Z,24.10
2022-11-18T10:06:28.584Z,21.80
2022-11-18T10:07:28.604Z,21.40
2022-11-18T10:08:28.521Z,22.10
2022-11-18T10:09:28.497Z,19.50
2022-11-18T10:10:28.516Z,20.20
2022-11-18T10:11:28.507Z,19.80
2022-11-18T10:12:28.474Z,21.00
2022-11-18T10:13:28.465Z,20.60
2022-11-18T10:14:28.449Z,20.70
2022-11-18T10:15:28.439Z,20.00
2022-11-18T10:16:28.454Z,21.30
2022-11-18T10:17:28.431Z,20.10
2022-11-18T10:19:28.406Z,18.80
2022-11-18T10:20:28.383Z,19.60
2022-11-18T10:21:28.406Z,20.80
2022-11-18T10:22:28.373Z,20.70
2022-11-18T10:23:28.456Z,21.50
2022-11-18T10:24:28.348Z,20.80
2022-11-18T10:25:28.351Z,21.20
2022-11-18T10:26:28.367Z,20.60
2022-11-18T10:27:28.335Z,20.00
2022-11-18T10:28:28.307Z,19.60
2022-11-18T10:29:28.292Z,19.00
2022-11-18T10:30:28.300Z,20.60
2022-11-18T10:31:28.267Z,19.70
2022-11-18T10:32:28.278Z,19.60
2022-11-18T10:33:28.246Z,18.50
2022-11-18T10:34:28.235Z,20.50
2022-11-18T10:35:28.232Z,19.10
2022-11-18T10:36:28.206Z,18.40
2022-11-18T10:37:45.842Z,17.60
2022-11-18T10:38:28.198Z,17.70
2022-11-18T10:39:28.175Z,18.50
2022-11-18T10:40:28.169Z,17.50
2022-11-18T10:41:28.160Z,17.40
2022-11-18T10:42:28.165Z,17.70
2022-11-18T10:43:28.143Z,17.60
2022-11-18T10:44:28.139Z,18.50
2022-11-18T10:45:28.126Z,17.20
2022-11-18T10:46:28.095Z,17.10
2022-11-18T10:47:28.113Z,18.00
2022-11-18T10:48:28.079Z,18.40
2022-11-18T10:49:28.073Z,17.70
2022-11-18T10:50:28.068Z,16.30
2022-11-18T10:51:28.045Z,16.00
2022-11-18T10:52:28.063Z,16.50
2022-11-18T10:53:28.022Z,17.40
2022-11-18T10:54:28.026Z,16.10
2022-11-18T10:55:28.007Z,17.10
2022-11-18T10:56:27.995Z,16.50
2022-11-18T10:57:27.994Z,16.40
2022-11-18T10:58:28.009Z,16.20
2022-11-18T10:59:27.965Z,17.10
2022-11-18T11:00:27.940Z,17.10
2022-11-18T11:01:28.038Z,16.50
2022-11-18T11:02:27.941Z,16.50
2022-11-18T11:03:27.919Z,16.00
2022-11-18T11:04:27.926Z,16.10
2022-11-18T11:05:27.898Z,15.80
2022-11-18T11:06:27.882Z,14.70
2022-11-18T11:07:27.947Z,15.50
2022-11-18T11:08:37.086Z,16.40
2022-11-18T11:09:27.849Z,15.40
2022-11-18T11:10:27.923Z,16.40
2022-11-18T11:11:27.880Z,15.40
2022-11-18T11:12:27.865Z,16.70
2022-11-18T11:13:27.807Z,15.40
2022-11-18T11:14:27.803Z,15.00
2022-11-18T11:15:27.795Z,15.50
2022-11-18T11:16:27.773Z,15.40
2022-11-18T11:17:27.855Z,13.50
2022-11-18T11:18:27.750Z,15.40
2022-11-18T11:19:27.742Z,14.30
2022-11-18T11:20:27.730Z,14.10
2022-11-18T11:21:27.727Z,14.80
2022-11-18T11:22:27.723Z,13.30
2022-11-18T11:23:27.700Z,14.20
2022-11-18T11:24:27.689Z,14.30
2022-11-18T11:25:28.294Z,13.00
2022-11-18T11:28:27.650Z,12.20
2022-11-18T11:29:27.628Z,13.00
2022-11-18T11:30:27.627Z,12.70
2022-11-18T11:31:27.600Z,14.50
2022-11-18T11:32:27.625Z,14.10
2022-11-18T11:33:27.582Z,14.30
2022-11-18T11:34:27.591Z,13.40
2022-11-18T11:35:27.563Z,12.30
2022-11-18T11:36:27.557Z,12.50
2022-11-18T11:37:27.572Z,12.70
2022-11-18T11:38:27.539Z,12.60
2022-11-18T11:39:27.523Z,11.80
2022-11-18T11:40:27.502Z,12.10
2022-11-18T11:41:27.496Z,11.70
2022-11-18T11:42:27.501Z,11.60
2022-11-18T11:43:27.487Z,12.80
2022-11-18T11:44:27.462Z,12.30
2022-11-18T11:45:27.447Z,12.60
2022-11-18T11:46:27.459Z,12.00
2022-11-18T11:47:27.457Z,11.50
2022-11-18T11:48:27.419Z,12.10
2022-11-18T11:49:27.418Z,12.70
2022-11-18T11:50:27.394Z,12.90
2022-11-18T11:51:27.396Z,11.50
2022-11-18T11:52:27.391Z,11.20
2022-11-18T11:53:27.377Z,12.50
2022-11-18T11:54:27.357Z,12.20
2022-11-18T11:55:27.344Z,11.60
2022-11-18T11:56:27.332Z,12.00
2022-11-18T11:57:27.330Z,11.80
2022-11-18T11:58:27.315Z,10.80
2022-11-18T11:59:27.299Z,10.60
2022-11-18T12:00:27.295Z,21.70
2022-11-18T12:01:27.273Z,15.50
2022-11-18T12:02:27.332Z,13.00
2022-11-18T12:03:27.253Z,14.90
2022-11-18T12:04:27.243Z,14.10
2022-11-18T12:05:27.243Z,14.20
2022-11-18T12:06:27.238Z,12.00
2022-11-18T12:07:27.261Z,12.20
2022-11-18T12:08:27.204Z,12.60
2022-11-18T12:09:27.192Z,12.80
2022-11-18T12:10:27.182Z,12.60
2022-11-18T12:11:27.162Z,12.40
2022-11-18T12:12:27.174Z,10.80
2022-11-18T12:13:27.148Z,11.30
2022-11-18T12:14:27.134Z,11.50
2022-11-18T12:15:27.119Z,11.40
2022-11-18T12:16:27.108Z,10.90
2022-11-18T12:17:27.141Z,11.20
2022-11-18T12:18:27.095Z,12.20
2022-11-18T12:19:27.102Z,10.90
2022-11-18T12:20:27.078Z,10.40
2022-11-18T12:21:31.062Z,11.80
2022-11-18T12:22:27.073Z,11.40
2022-11-18T12:23:27.035Z,11.80
2022-11-18T12:24:27.029Z,10.70
2022-11-18T12:25:27.013Z,10.50
2022-11-18T12:26:27.008Z,10.90
2022-11-18T12:27:27.014Z,11.20
2022-11-18T12:28:26.983Z,10.80
2022-11-18T12:29:26.966Z,10.30
2022-11-18T12:30:26.971Z,11.30
2022-11-18T12:31:26.949Z,10.80
2022-11-18T12:32:26.958Z,10.70
2022-11-18T12:33:26.924Z,10.00
2022-11-18T12:34:26.932Z,9.90
2022-11-18T12:35:26.904Z,10.20
2022-11-18T12:36:26.901Z,10.80
2022-11-18T12:37:26.903Z,9.60
2022-11-18T12:38:26.870Z,10.00
2022-11-18T12:39:26.854Z,10.50
2022-11-18T12:40:26.845Z,9.70
2022-11-18T12:41:26.850Z,10.30
2022-11-18T12:42:26.854Z,9.60
2022-11-18T12:43:26.815Z,10.60
2022-11-18T12:44:26.809Z,9.90
2022-11-18T12:45:26.796Z,9.60
2022-11-18T12:46:26.780Z,9.30
2022-11-18T12:47:26.779Z,10.10
2022-11-18T12:48:27.887Z,10.20
2022-11-18T12:49:26.755Z,9.70
2022-11-18T12:50:26.747Z,9.80
2022-11-18T12:51:26.729Z,9.00
2022-11-18T12:52:26.747Z,9.80
2022-11-18T12:53:26.709Z,9.80
2022-11-18T12:54:26.699Z,9.70
2022-11-18T12:55:26.674Z,9.80
2022-11-18T12:56:26.681Z,10.50
2022-11-18T12:57:26.677Z,9.30
2022-11-18T12:58:26.651Z,8.70
2022-11-18T12:59:26.644Z,9.20
2022-11-18T13:00:26.764Z,8.00